Rosedale, Illinois
Current Conditions -  °F | °C
As of 7:54 PM on Thursday 18 Dec 2014 (Local Time) from KSET Reporting Station
Overcast Overcast  
Wind Chill: 25°   Ceiling: 3300
Heat Index: 32°   Visibility: 10mi
Dew Point: 26°   Wind: 8mph
Humidity: 79%   Direction: 40°NE
Pressure: 30.28"   Gusts: NA
Location:  39.1226°N, 90.5371°W
Report Text: KSET 190154Z AUTO 04007KT 10SM FEW026 OVC033 00/M03 A3028 RMK AO2 SLP258 T00001033
Loading
Personal Weather Stations






























Interactive Weather Map New forecast layout! Learn more

10-Day Weather Forecast

Advertisements
Track Severe Weather on mobile